createdAt,value
2024-02-08T00:00:17.087Z,98361.96
2024-02-08T00:03:39.310Z,98361.14
2024-02-08T00:06:41.311Z,98365.55
2024-02-08T00:09:43.236Z,98370.17
2024-02-08T00:12:45.161Z,98367.80
2024-02-08T00:15:47.024Z,98372.91
2024-02-08T00:18:48.848Z,98373.29
2024-02-08T00:21:50.684Z,98369.61
2024-02-08T00:24:52.287Z,98367.82
2024-02-08T00:27:54.615Z,98364.37
2024-02-08T00:30:56.578Z,98371.18
2024-02-08T00:34:04.276Z,98375.39
2024-02-08T00:37:06.349Z,98378.20
2024-02-08T00:40:08.816Z,98371.95
2024-02-08T00:43:10.773Z,98374.90
2024-02-08T00:46:12.557Z,98373.89
2024-02-08T00:49:23.258Z,98369.30
2024-02-08T00:52:25.030Z,98367.63
2024-02-08T00:55:26.886Z,98371.36
2024-02-08T00:58:28.575Z,98374.25
2024-02-08T01:01:30.437Z,98375.27
2024-02-08T01:04:34.508Z,98375.63
2024-02-08T01:07:37.369Z,98374.30
2024-02-08T01:10:39.158Z,98372.42
2024-02-08T01:13:41.317Z,98372.44
2024-02-08T01:16:45.980Z,98368.88
2024-02-08T01:19:47.787Z,98372.60
2024-02-08T01:22:52.927Z,98371.91
2024-02-08T01:25:54.846Z,98372.40
2024-02-08T01:28:56.578Z,98372.70
2024-02-08T01:31:58.475Z,98369.26
2024-02-08T01:35:02.009Z,98366.70
2024-02-08T01:38:04.217Z,98366.86
2024-02-08T01:41:14.916Z,98365.14
2024-02-08T01:44:16.861Z,98360.90
2024-02-08T01:47:18.915Z,98362.11
2024-02-08T01:50:21.051Z,98359.88
2024-02-08T01:53:24.781Z,98352.42
2024-02-08T01:56:26.741Z,98350.39
2024-02-08T01:59:29.085Z,98352.61
2024-02-08T02:02:31.069Z,98350.25
2024-02-08T02:05:33.141Z,98334.93
2024-02-08T02:08:35.138Z,98338.00
2024-02-08T02:11:42.983Z,98336.81
2024-02-08T02:14:45.094Z,98349.94
2024-02-08T02:17:47.094Z,98350.44
2024-02-08T02:20:48.964Z,98350.61
2024-02-08T02:23:50.944Z,98349.75
2024-02-08T02:26:53.941Z,98350.98
2024-02-08T02:29:56.367Z,98357.27
2024-02-08T02:32:58.928Z,98358.27
2024-02-08T02:36:02.458Z,98359.11
2024-02-08T02:39:04.388Z,98358.09
2024-02-08T02:42:06.474Z,98354.34
2024-02-08T02:45:08.866Z,98358.77
2024-02-08T02:48:11.913Z,98363.20
2024-02-08T02:51:16.556Z,98363.69
2024-02-08T02:54:21.358Z,98363.36
2024-02-08T02:57:23.112Z,98360.14
2024-02-08T03:00:27.884Z,98360.14
2024-02-08T03:03:29.724Z,98362.38
2024-02-08T03:06:31.551Z,98357.29
2024-02-08T03:09:33.386Z,98352.21
2024-02-08T03:12:35.245Z,98351.38
2024-02-08T03:15:37.659Z,98349.01
2024-02-08T03:18:39.678Z,98350.05
2024-02-08T03:22:01.040Z,98350.37
2024-02-08T03:25:05.980Z,98353.94
2024-02-08T03:28:07.935Z,98356.83
2024-02-08T03:31:10.002Z,98356.00
2024-02-08T03:34:16.253Z,98356.67
2024-02-08T03:37:18.441Z,98359.02
2024-02-08T03:40:23.921Z,98360.91
2024-02-08T03:43:25.981Z,98359.71
2024-02-08T03:46:28.363Z,98356.61
2024-02-08T03:49:32.812Z,98358.50
2024-02-08T03:52:38.248Z,98361.91
2024-02-08T03:55:40.395Z,98363.63
2024-02-08T03:58:47.640Z,98367.86
2024-02-08T04:01:50.284Z,98364.30
2024-02-08T04:04:52.167Z,98370.59
2024-02-08T04:07:54.025Z,98373.14
2024-02-08T04:11:03.468Z,98374.16
2024-02-08T04:14:05.352Z,98370.59
2024-02-08T04:17:07.267Z,98366.52
2024-02-08T04:20:09.434Z,98358.89
2024-02-08T04:23:14.671Z,98357.20
2024-02-08T04:26:16.516Z,98354.83
2024-02-08T04:29:21.346Z,98356.73
2024-02-08T04:32:23.273Z,98352.69
2024-02-08T04:35:28.666Z,98348.13
2024-02-08T04:38:32.751Z,98352.56
2024-02-08T04:41:34.701Z,98355.98
2024-02-08T04:44:36.544Z,98353.09
2024-02-08T04:47:38.348Z,98354.30
2024-02-08T04:50:41.026Z,98361.80
2024-02-08T04:53:42.889Z,98363.70
2024-02-08T04:56:44.564Z,98364.08
2024-02-08T04:59:47.039Z,98359.98
2024-02-08T05:02:49.088Z,98362.08
2024-02-08T05:05:50.913Z,98359.80
2024-02-08T05:08:52.977Z,98357.89
2024-02-08T05:11:54.897Z,98356.19
2024-02-08T05:14:56.750Z,98356.71
2024-02-08T05:17:58.660Z,98357.51
2024-02-08T05:21:00.981Z,98359.09
2024-02-08T05:24:02.956Z,98362.95
2024-02-08T05:27:04.641Z,98366.48
2024-02-08T05:30:16.005Z,98364.47
2024-02-08T05:33:18.482Z,98369.55
2024-02-08T05:36:20.524Z,98375.41
2024-02-08T05:39:22.097Z,98376.98
2024-02-08T05:42:23.964Z,98376.89
2024-02-08T05:45:28.749Z,98378.89
2024-02-08T05:48:54.126Z,98377.75
2024-02-08T05:52:03.618Z,98377.04
2024-02-08T05:55:06.062Z,98380.04
2024-02-08T05:58:08.302Z,98380.14
2024-02-08T06:01:10.501Z,98387.85
2024-02-08T06:04:13.098Z,98380.70
2024-02-08T06:07:15.056Z,98387.08
2024-02-08T06:10:17.180Z,98385.80
2024-02-08T06:13:19.348Z,98392.85
2024-02-08T06:16:21.308Z,98390.15
2024-02-08T06:19:23.103Z,98389.20
2024-02-08T06:22:25.054Z,98394.06
2024-02-08T06:25:26.817Z,98401.28
2024-02-08T06:28:28.825Z,98408.08
2024-02-08T06:31:34.134Z,98411.31
2024-02-08T06:34:39.015Z,98406.88
2024-02-08T06:37:41.711Z,98408.23
2024-02-08T06:40:43.459Z,98415.48
2024-02-08T06:43:45.281Z,98415.45
2024-02-08T06:46:46.931Z,98412.49
2024-02-08T06:49:48.815Z,98408.43
2024-02-08T06:52:50.632Z,98405.56
2024-02-08T06:55:52.390Z,98404.92
2024-02-08T06:58:54.316Z,98404.95
2024-02-08T07:02:07.920Z,98408.05
2024-02-08T07:05:13.109Z,98414.42
2024-02-08T07:08:15.574Z,98413.09
2024-02-08T07:11:17.787Z,98412.15
2024-02-08T07:14:19.658Z,98420.59
2024-02-08T07:17:21.536Z,98424.78
2024-02-08T07:20:23.401Z,98428.14
2024-02-08T07:23:25.395Z,98424.50
2024-02-08T07:26:30.366Z,98432.13
2024-02-08T07:29:32.055Z,98429.15
2024-02-08T07:32:36.902Z,98419.33
2024-02-08T07:35:38.870Z,98419.85
2024-02-08T07:38:40.702Z,98414.23
2024-02-08T07:41:42.628Z,98408.42
2024-02-08T07:44:44.628Z,98408.31
2024-02-08T07:47:47.251Z,98405.13
2024-02-08T07:50:49.019Z,98400.61
2024-02-08T07:53:51.076Z,98395.39
2024-02-08T07:56:52.723Z,98390.98
2024-02-08T08:00:00.336Z,98395.83
2024-02-08T08:03:02.974Z,98394.06
2024-02-08T08:06:05.107Z,98388.25
2024-02-08T08:09:06.911Z,98390.36
2024-02-08T08:12:09.135Z,98396.40
2024-02-08T08:15:10.976Z,98396.60
2024-02-08T08:18:12.877Z,98396.54
2024-02-08T08:21:15.046Z,98392.92
2024-02-08T08:24:16.776Z,98388.40
2024-02-08T08:27:19.040Z,98393.38
2024-02-08T08:30:21.194Z,98394.91
2024-02-08T08:33:22.988Z,98394.95
2024-02-08T08:36:24.693Z,98396.75
2024-02-08T08:39:26.658Z,98386.86
2024-02-08T08:42:28.316Z,98389.38
2024-02-08T08:45:30.163Z,98388.64
2024-02-08T08:48:32.240Z,98376.05
2024-02-08T08:51:34.420Z,98372.42
2024-02-08T08:54:36.209Z,98364.34
2024-02-08T08:57:38.799Z,98369.96
2024-02-08T09:00:40.853Z,98363.54
2024-02-08T09:03:46.635Z,98367.03
2024-02-08T09:06:48.635Z,98365.65
2024-02-08T09:09:50.763Z,98370.14
2024-02-08T09:12:52.724Z,98377.83
2024-02-08T09:15:54.755Z,98377.81
2024-02-08T09:18:57.616Z,98371.14
2024-02-08T09:21:59.629Z,98362.40
2024-02-08T09:25:01.915Z,98368.97
2024-02-08T09:28:04.267Z,98375.79
2024-02-08T09:31:06.666Z,98373.75
2024-02-08T09:34:08.688Z,98369.30
2024-02-08T09:37:13.705Z,98370.16
2024-02-08T09:40:16.896Z,98372.02
2024-02-08T09:43:19.603Z,98373.61
2024-02-08T09:46:23.394Z,98372.09
2024-02-08T09:49:25.577Z,98362.66
2024-02-08T09:52:31.116Z,98352.23
2024-02-08T09:55:33.157Z,98340.48
2024-02-08T09:58:39.283Z,98337.15
2024-02-08T10:01:52.555Z,98337.54
2024-02-08T10:04:56.031Z,98338.58
2024-02-08T10:07:57.965Z,98337.16
2024-02-08T10:11:02.605Z,98329.99
2024-02-08T10:14:06.307Z,98320.95
2024-02-08T10:17:18.039Z,98316.20
2024-02-08T10:20:22.309Z,98322.66
2024-02-08T10:23:24.185Z,98318.12
2024-02-08T10:26:38.982Z,98312.80
2024-02-08T10:29:40.973Z,98304.02
2024-02-08T10:32:43.424Z,98290.77
2024-02-08T10:35:45.257Z,98281.98
2024-02-08T10:38:48.150Z,98279.67
2024-02-08T10:41:50.319Z,98282.86
2024-02-08T10:44:52.227Z,98286.90
2024-02-08T10:47:55.685Z,98277.31
2024-02-08T10:50:58.308Z,98268.69
2024-02-08T10:54:00.248Z,98259.45
2024-02-08T10:57:02.239Z,98256.02
2024-02-08T11:00:04.605Z,98259.45
2024-02-08T11:03:07.331Z,98269.55
2024-02-08T11:06:11.247Z,98278.47
2024-02-08T11:09:13.386Z,98276.34
2024-02-08T11:12:20.579Z,98266.56
2024-02-08T11:15:25.083Z,98256.96
2024-02-08T11:18:27.044Z,98241.66
2024-02-08T11:21:29.328Z,98228.67
2024-02-08T11:24:31.444Z,98228.53
2024-02-08T11:27:33.521Z,98222.86
2024-02-08T11:30:35.838Z,98217.28
2024-02-08T11:33:38.441Z,98215.86
2024-02-08T11:36:48.574Z,98212.60
2024-02-08T11:40:03.188Z,98214.41
2024-02-08T11:43:08.040Z,98219.54
2024-02-08T11:46:14.766Z,98228.77
2024-02-08T11:49:20.658Z,98217.32
2024-02-08T11:52:22.750Z,98215.56
2024-02-08T11:55:25.011Z,98214.23
2024-02-08T11:58:27.138Z,98215.73
2024-02-08T12:01:29.220Z,98218.41
2024-02-08T12:04:32.207Z,98214.11
2024-02-08T12:07:44.027Z,98202.92
2024-02-08T12:10:49.626Z,98194.33
2024-02-08T12:13:51.695Z,98188.66
2024-02-08T12:16:54.720Z,98191.23
2024-02-08T12:19:59.556Z,98185.85
2024-02-08T12:23:01.591Z,98171.44
2024-02-08T12:26:06.477Z,98165.29
2024-02-08T12:29:09.074Z,98157.02
2024-02-08T12:32:14.443Z,98158.53
2024-02-08T12:35:16.444Z,98151.37
2024-02-08T12:38:18.506Z,98150.48
2024-02-08T12:41:20.668Z,98151.50
2024-02-08T12:44:22.571Z,98157.98
2024-02-08T12:47:24.441Z,98158.05
2024-02-08T12:50:28.825Z,98152.99
2024-02-08T12:53:32.263Z,98149.73
2024-02-08T12:56:37.130Z,98145.77
2024-02-08T12:59:42.925Z,98142.30
2024-02-08T13:02:44.737Z,98135.40
2024-02-08T13:05:46.861Z,98136.45
2024-02-08T13:09:09.141Z,98137.36
2024-02-08T13:12:14.264Z,98130.19
2024-02-08T13:15:20.531Z,98122.05
2024-02-08T13:18:22.530Z,98110.11
2024-02-08T13:21:24.493Z,98111.63
2024-02-08T13:24:26.351Z,98103.55
2024-02-08T13:27:29.169Z,98104.30
2024-02-08T13:30:31.225Z,98101.90
2024-02-08T13:33:35.377Z,98111.55
2024-02-08T13:36:37.428Z,98109.51
2024-02-08T13:39:45.781Z,98106.85
2024-02-08T13:42:54.496Z,98098.66
2024-02-08T13:45:57.808Z,98098.15
2024-02-08T13:49:00.023Z,98099.86
2024-02-08T13:52:05.287Z,98103.57
2024-02-08T13:55:07.387Z,98102.73
2024-02-08T13:58:09.353Z,98094.44
2024-02-08T14:01:11.508Z,98091.23
2024-02-08T14:04:13.467Z,98080.71
2024-02-08T14:07:15.675Z,98073.70
2024-02-08T14:10:17.659Z,98072.92
2024-02-08T14:13:20.866Z,98077.49
2024-02-08T14:16:26.066Z,98073.23
2024-02-08T14:19:28.032Z,98085.54
2024-02-08T14:22:30.060Z,98082.08
2024-02-08T14:25:32.216Z,98078.50
2024-02-08T14:28:38.393Z,98082.89
2024-02-08T14:31:41.504Z,98076.95
2024-02-08T14:34:44.935Z,98075.31
2024-02-08T14:38:26.325Z,98068.00
2024-02-08T14:41:28.797Z,98060.98
2024-02-08T14:44:31.052Z,98061.09
2024-02-08T14:47:33.101Z,98055.29
2024-02-08T14:50:38.583Z,98059.67
2024-02-08T14:53:40.670Z,98056.55
2024-02-08T14:56:42.603Z,98056.14
2024-02-08T14:59:44.599Z,98056.09
2024-02-08T15:02:46.512Z,98052.05
2024-02-08T15:05:49.773Z,98048.31
2024-02-08T15:08:52.677Z,98045.58
2024-02-08T15:11:55.380Z,98045.92
2024-02-08T15:15:00.625Z,98046.31
2024-02-08T15:18:02.724Z,98042.93
2024-02-08T15:21:07.996Z,98044.45
2024-02-08T15:24:10.241Z,98043.47
2024-02-08T15:27:18.141Z,98039.20
2024-02-08T15:30:23.157Z,98036.21
2024-02-08T15:33:25.448Z,98036.36
2024-02-08T15:36:27.622Z,98035.42
2024-02-08T15:39:32.897Z,98028.52
2024-02-08T15:43:14.973Z,98022.14
2024-02-08T15:46:17.075Z,98026.34
2024-02-08T15:49:22.260Z,98030.48
2024-02-08T15:52:25.522Z,98030.40
2024-02-08T15:55:27.563Z,98025.42
2024-02-08T15:58:29.556Z,98022.28
2024-02-08T16:01:31.708Z,98024.19
2024-02-08T16:04:36.357Z,98027.45
2024-02-08T16:07:38.717Z,98032.15
2024-02-08T16:10:41.369Z,98035.32
2024-02-08T16:13:43.223Z,98030.94
2024-02-08T16:16:45.189Z,98022.62
2024-02-08T16:19:46.947Z,98028.27
2024-02-08T16:22:49.181Z,98031.04
2024-02-08T16:25:51.813Z,98029.13
2024-02-08T16:28:53.749Z,98033.77
2024-02-08T16:31:55.666Z,98036.36
2024-02-08T16:35:26.517Z,98029.31
2024-02-08T16:38:29.264Z,98033.13
2024-02-08T16:41:31.629Z,98030.41
2024-02-08T16:44:33.530Z,98028.22
2024-02-08T16:47:35.777Z,98027.42
2024-02-08T16:50:38.275Z,98022.66
2024-02-08T16:53:40.630Z,98021.66
2024-02-08T16:56:42.516Z,98021.95
2024-02-08T16:59:44.456Z,98025.65
2024-02-08T17:02:46.419Z,98017.08
2024-02-08T17:05:48.466Z,98019.34
2024-02-08T17:08:50.473Z,98009.59
2024-02-08T17:11:52.435Z,98006.24
2024-02-08T17:14:54.485Z,98006.23
2024-02-08T17:17:57.415Z,98000.39
2024-02-08T17:20:59.515Z,97987.56
2024-02-08T17:24:11.421Z,97989.63
2024-02-08T17:27:13.098Z,97992.84
2024-02-08T17:30:18.821Z,97988.90
2024-02-08T17:33:21.046Z,97986.38
2024-02-08T17:36:25.525Z,97983.79
2024-02-08T17:39:28.638Z,97986.20
2024-02-08T17:42:50.867Z,97990.55
2024-02-08T17:45:57.139Z,97989.21
2024-02-08T17:49:03.020Z,97988.92
2024-02-08T17:52:13.989Z,97981.27
2024-02-08T17:55:16.396Z,97981.73
2024-02-08T17:58:21.452Z,97976.84
2024-02-08T18:01:23.898Z,97977.42
2024-02-08T18:04:27.378Z,97976.27
2024-02-08T18:07:29.565Z,97973.02
2024-02-08T18:10:31.774Z,97972.46
2024-02-08T18:13:33.833Z,97968.99
2024-02-08T18:16:36.142Z,97962.69
2024-02-08T18:19:38.584Z,97964.14
2024-02-08T18:22:40.856Z,97962.14
2024-02-08T18:25:45.508Z,97956.67
2024-02-08T18:28:47.554Z,97947.64
2024-02-08T18:31:51.943Z,97941.22
2024-02-08T18:34:53.985Z,97932.69
2024-02-08T18:37:55.971Z,97920.15
2024-02-08T18:40:58.057Z,97918.20
2024-02-08T18:44:00.125Z,97918.17
2024-02-08T18:47:02.887Z,97918.63
2024-02-08T18:50:08.807Z,97915.67
2024-02-08T18:53:13.366Z,97906.77
2024-02-08T18:56:15.569Z,97900.53
2024-02-08T18:59:17.362Z,97900.99
2024-02-08T19:02:19.855Z,97901.65
2024-02-08T19:05:25.298Z,97898.17
2024-02-08T19:08:28.372Z,97893.20
2024-02-08T19:11:30.500Z,97893.63
2024-02-08T19:14:32.344Z,97888.64
2024-02-08T19:17:34.715Z,97880.33
2024-02-08T19:20:36.991Z,97878.50
2024-02-08T19:23:38.894Z,97873.83
2024-02-08T19:26:41.130Z,97868.61
2024-02-08T19:29:43.650Z,97867.48
2024-02-08T19:33:04.900Z,97862.61
2024-02-08T19:36:09.359Z,97858.17
2024-02-08T19:39:11.251Z,97848.59
2024-02-08T19:42:13.262Z,97842.83
2024-02-08T19:45:36.528Z,97835.53
2024-02-08T19:48:38.632Z,97831.09
2024-02-08T19:51:40.585Z,97826.31
2024-02-08T19:54:43.062Z,97824.57
2024-02-08T19:57:44.977Z,97823.18
2024-02-08T20:00:50.181Z,97814.99
2024-02-08T20:03:53.393Z,97810.02
2024-02-08T20:06:55.397Z,97811.44
2024-02-08T20:09:58.455Z,97810.15
2024-02-08T20:13:00.714Z,97813.86
2024-02-08T20:16:02.668Z,97807.91
2024-02-08T20:19:06.117Z,97816.31
2024-02-08T20:22:09.625Z,97811.17
2024-02-08T20:25:12.389Z,97813.54
2024-02-08T20:28:14.412Z,97804.29
2024-02-08T20:31:16.359Z,97808.95
2024-02-08T20:34:18.303Z,97807.66
2024-02-08T20:37:20.666Z,97810.96
2024-02-08T20:40:23.463Z,97808.91
2024-02-08T20:43:25.622Z,97807.20
2024-02-08T20:46:27.742Z,97805.81
2024-02-08T20:49:30.000Z,97806.31
2024-02-08T20:52:32.287Z,97805.60
2024-02-08T20:55:34.195Z,97798.09
2024-02-08T20:58:37.753Z,97786.84
2024-02-08T21:01:39.600Z,97793.23
2024-02-08T21:04:41.496Z,97788.67
2024-02-08T21:07:43.358Z,97790.04
2024-02-08T21:10:45.388Z,97797.08
2024-02-08T21:13:52.640Z,97804.23
2024-02-08T21:16:54.508Z,97782.23
2024-02-08T21:19:56.968Z,97780.14
2024-02-08T21:22:58.717Z,97761.71
2024-02-08T21:26:00.494Z,97764.77
2024-02-08T21:29:02.406Z,97767.34
2024-02-08T21:32:07.698Z,97760.16
2024-02-08T21:35:09.595Z,97744.05
2024-02-08T21:38:11.650Z,97731.93
2024-02-08T21:41:14.697Z,97734.05
2024-02-08T21:44:16.686Z,97735.86
2024-02-08T21:47:18.491Z,97737.55
2024-02-08T21:50:20.673Z,97733.18
2024-02-08T21:53:22.464Z,97733.63
2024-02-08T21:56:24.147Z,97729.48
2024-02-08T21:59:25.901Z,97725.55
2024-02-08T22:02:27.893Z,97720.29
2024-02-08T22:05:30.071Z,97715.88
2024-02-08T22:08:35.240Z,97711.11
2024-02-08T22:11:53.650Z,97709.10
2024-02-08T22:14:55.732Z,97711.07
2024-02-08T22:17:57.759Z,97720.55
2024-02-08T22:20:59.657Z,97718.61
2024-02-08T22:24:01.705Z,97711.32
2024-02-08T22:27:03.891Z,97731.91
2024-02-08T22:30:06.795Z,97713.20
2024-02-08T22:33:08.824Z,97736.58
2024-02-08T22:36:11.170Z,97738.20
2024-02-08T22:39:13.557Z,97735.81
2024-02-08T22:42:15.460Z,97732.92
2024-02-08T22:45:17.617Z,97717.21
2024-02-08T22:48:22.774Z,97720.49
2024-02-08T22:51:24.667Z,97713.69
2024-02-08T22:54:26.584Z,97711.92
2024-02-08T22:57:28.533Z,97714.86
2024-02-08T23:00:30.571Z,97700.01
2024-02-08T23:03:32.778Z,97697.65
2024-02-08T23:06:36.830Z,97703.71
2024-02-08T23:09:39.577Z,97691.96
2024-02-08T23:12:41.566Z,97689.81
2024-02-08T23:15:44.893Z,97690.94
2024-02-08T23:18:46.969Z,97679.07
2024-02-08T23:21:48.880Z,97681.34
2024-02-08T23:24:53.584Z,97674.95
2024-02-08T23:28:07.638Z,97676.77
2024-02-08T23:31:09.671Z,97678.58
2024-02-08T23:34:12.768Z,97677.02
2024-02-08T23:37:14.876Z,97682.88
2024-02-08T23:40:17.346Z,97669.84
2024-02-08T23:43:19.666Z,97687.35
2024-02-08T23:46:21.737Z,97687.20
2024-02-08T23:49:24.097Z,97680.67
2024-02-08T23:52:30.856Z,97694.17
2024-02-08T23:55:44.583Z,97690.02
2024-02-08T23:59:19.548Z,97699.55
